Sretensk, Russia
Current Conditions -  °F | °C
As of 12:30 PM on Tuesday 21 Oct 2014 (Local Time) from UIAA Reporting Station
Broken Clouds Broken Clouds  
Wind Chill: 19°   Ceiling: 20000
Heat Index: 19°   Visibility: 6mi
Dew Point:   Wind: 0mph
Humidity: 46%   Direction: NA
Pressure: 30.18"   Gusts: NA
Location:  52.23°N, 117.7°E
Report Text: UIAA 210330Z 00000MPS 9999 FEW100 BKN200 M07/M17 Q1022 NOSIGRMK QFE708 29CLRD70
Loading
Personal Weather Stations






























Interactive Weather Map
Tropical Storm Tracking
New forecast layout! Learn more

10-Day Weather Forecast

Advertisements
Track Severe Weather on mobile